sensor_id;sensor_type;location;lat;lon;timestamp;pressure;altitude;pressure_sealevel;temperature;humidity
74678;BME280;67324;56.326;43.982;2023-02-11T00:00:38;100451.84;;;20.50;26.10
74678;BME280;67324;56.326;43.982;2023-02-11T00:03:04;100447.41;;;20.50;26.08
74678;BME280;67324;56.326;43.982;2023-02-11T00:05:30;100445.72;;;20.49;26.12
74678;BME280;67324;56.326;43.982;2023-02-11T00:07:56;100448.53;;;20.48;26.17
74678;BME280;67324;56.326;43.982;2023-02-11T00:10:22;100449.22;;;20.50;26.07
74678;BME280;67324;56.326;43.982;2023-02-11T00:12:48;100444.09;;;20.48;26.08
74678;BME280;67324;56.326;43.982;2023-02-11T00:15:13;100449.22;;;20.50;26.17
74678;BME280;67324;56.326;43.982;2023-02-11T00:17:39;100457.09;;;20.50;26.12
74678;BME280;67324;56.326;43.982;2023-02-11T00:20:05;100446.56;;;20.50;26.11
74678;BME280;67324;56.326;43.982;2023-02-11T00:22:31;100443.94;;;20.50;26.12
74678;BME280;67324;56.326;43.982;2023-02-11T00:24:57;100453.78;;;20.48;26.15
74678;BME280;67324;56.326;43.982;2023-02-11T00:27:23;100442.16;;;20.50;26.25
74678;BME280;67324;56.326;43.982;2023-02-11T00:29:50;100433.56;;;20.48;26.18
74678;BME280;67324;56.326;43.982;2023-02-11T00:32:16;100444.78;;;20.50;26.23
74678;BME280;67324;56.326;43.982;2023-02-11T00:34:42;100437.84;;;20.49;26.16
74678;BME280;67324;56.326;43.982;2023-02-11T00:37:26;100430.94;;;20.48;26.20
74678;BME280;67324;56.326;43.982;2023-02-11T00:39:52;100430.94;;;20.48;26.11
74678;BME280;67324;56.326;43.982;2023-02-11T00:42:18;100426.50;;;20.49;26.11
74678;BME280;67324;56.326;43.982;2023-02-11T00:44:44;100433.56;;;20.48;26.11
74678;BME280;67324;56.326;43.982;2023-02-11T00:47:10;100428.19;;;20.50;26.08
74678;BME280;67324;56.326;43.982;2023-02-11T00:49:36;100423.75;;;20.50;26.16
74678;BME280;67324;56.326;43.982;2023-02-11T00:52:04;100421.94;;;20.51;26.09
74678;BME280;67324;56.326;43.982;2023-02-11T00:54:29;100426.38;;;20.50;26.13
74678;BME280;67324;56.326;43.982;2023-02-11T00:56:55;100422.75;;;20.51;26.19
74678;BME280;67324;56.326;43.982;2023-02-11T00:59:23;100431.63;;;20.50;26.13
74678;BME280;67324;56.326;43.982;2023-02-11T01:01:49;100421.44;;;20.47;26.25
74678;BME280;67324;56.326;43.982;2023-02-11T01:04:14;100432.44;;;20.51;26.24
74678;BME280;67324;56.326;43.982;2023-02-11T01:06:40;100430.63;;;20.51;26.11
74678;BME280;67324;56.326;43.982;2023-02-11T01:09:06;100437.84;;;20.49;26.20
74678;BME280;67324;56.326;43.982;2023-02-11T01:11:34;100443.78;;;20.51;26.20
74678;BME280;67324;56.326;43.982;2023-02-11T01:14:00;100441.16;;;20.51;26.23
74678;BME280;67324;56.326;43.982;2023-02-11T01:16:25;100441.97;;;20.52;26.13
74678;BME280;67324;56.326;43.982;2023-02-11T01:18:52;100428.84;;;20.52;26.16
74678;BME280;67324;56.326;43.982;2023-02-11T01:21:18;100434.09;;;20.52;26.19
74678;BME280;67324;56.326;43.982;2023-02-11T01:23:44;100433.28;;;20.51;26.15
74678;BME280;67324;56.326;43.982;2023-02-11T01:26:28;100433.56;;;20.48;26.28
74678;BME280;67324;56.326;43.982;2023-02-11T01:28:56;100431.63;;;20.50;26.15
74678;BME280;67324;56.326;43.982;2023-02-11T01:31:21;100429.13;;;20.49;26.03
74678;BME280;67324;56.326;43.982;2023-02-11T01:33:47;100422.94;;;20.50;26.12
74678;BME280;67324;56.326;43.982;2023-02-11T01:36:13;100415.19;;;20.48;26.09
74678;BME280;67324;56.326;43.982;2023-02-11T01:38:39;100417.69;;;20.50;26.27
74678;BME280;67324;56.326;43.982;2023-02-11T01:41:08;100421.13;;;20.50;26.20
74678;BME280;67324;56.326;43.982;2023-02-11T01:43:37;100424.56;;;20.51;26.23
74678;BME280;67324;56.326;43.982;2023-02-11T01:48:57;100428.19;;;20.50;26.24
74678;BME280;67324;56.326;43.982;2023-02-11T01:51:32;100423.75;;;20.50;26.08
74678;BME280;67324;56.326;43.982;2023-02-11T01:54:01;100417.69;;;20.50;26.16
74678;BME280;67324;56.326;43.982;2023-02-11T01:56:49;100420.13;;;20.51;26.10
74678;BME280;67324;56.326;43.982;2023-02-11T01:59:47;100423.06;;;20.48;26.18
74678;BME280;67324;56.326;43.982;2023-02-11T02:02:20;100417.69;;;20.50;26.15
74678;BME280;67324;56.326;43.982;2023-02-11T02:05:27;100421.13;;;20.50;26.19
74678;BME280;67324;56.326;43.982;2023-02-11T02:08:01;100415.19;;;20.48;26.19
74678;BME280;67324;56.326;43.982;2023-02-11T02:10:29;100422.06;;;20.49;26.19
74678;BME280;67324;56.326;43.982;2023-02-11T02:12:56;100418.50;;;20.50;26.21
74678;BME280;67324;56.326;43.982;2023-02-11T02:15:28;100417.50;;;20.51;26.00
74678;BME280;67324;56.326;43.982;2023-02-11T02:32:26;100434.41;;;20.49;26.30
74678;BME280;67324;56.326;43.982;2023-02-11T02:37:58;100434.41;;;20.49;26.23
74678;BME280;67324;56.326;43.982;2023-02-11T02:40:31;100434.25;;;20.50;26.07
74678;BME280;67324;56.326;43.982;2023-02-11T02:42:59;100440.34;;;20.51;26.17
74678;BME280;67324;56.326;43.982;2023-02-11T02:45:27;100434.41;;;20.49;26.13
74678;BME280;67324;56.326;43.982;2023-02-11T02:47:53;100444.78;;;20.50;26.21
74678;BME280;67324;56.326;43.982;2023-02-11T02:50:25;100439.50;;;20.50;26.07
74678;BME280;67324;56.326;43.982;2023-02-11T03:00:52;100433.28;;;20.51;26.17
74678;BME280;67324;56.326;43.982;2023-02-11T03:06:10;100425.25;;;20.53;26.14
74678;BME280;67324;56.326;43.982;2023-02-11T03:08:48;100429.69;;;20.52;26.25
74678;BME280;67324;56.326;43.982;2023-02-11T03:11:19;100431.47;;;20.52;26.11
74678;BME280;67324;56.326;43.982;2023-02-11T03:13:47;100420.81;;;20.53;26.22
74678;BME280;67324;56.326;43.982;2023-02-11T03:16:20;100431.31;;;20.53;26.28
74678;BME280;67324;56.326;43.982;2023-02-11T03:18:52;100431.31;;;20.53;26.12
74678;BME280;67324;56.326;43.982;2023-02-11T03:21:21;100412.94;;;20.53;26.05
74678;BME280;67324;56.326;43.982;2023-02-11T03:23:53;100414.75;;;20.53;26.10
74678;BME280;67324;56.326;43.982;2023-02-11T03:26:39;100407.81;;;20.52;26.20
74678;BME280;67324;56.326;43.982;2023-02-11T03:32:03;100411.28;;;20.52;26.14
74678;BME280;67324;56.326;43.982;2023-02-11T03:39:39;100403.41;;;20.52;26.15
74678;BME280;67324;56.326;43.982;2023-02-11T03:42:08;100393.84;;;20.51;26.13
74678;BME280;67324;56.326;43.982;2023-02-11T03:44:39;100403.41;;;20.52;26.18
74678;BME280;67324;56.326;43.982;2023-02-11T03:47:09;100403.41;;;20.52;26.26
74678;BME280;67324;56.326;43.982;2023-02-11T03:49:39;100410.31;;;20.53;26.13
74678;BME280;67324;56.326;43.982;2023-02-11T03:52:07;100412.09;;;20.53;26.27
74678;BME280;67324;56.326;43.982;2023-02-11T03:54:37;100406.84;;;20.53;26.26
74678;BME280;67324;56.326;43.982;2023-02-11T03:57:06;100409.47;;;20.53;26.18
74678;BME280;67324;56.326;43.982;2023-02-11T03:59:51;100408.66;;;20.52;26.13
74678;BME280;67324;56.326;43.982;2023-02-11T04:02:18;100407.81;;;20.52;26.19
74678;BME280;67324;56.326;43.982;2023-02-11T04:04:44;100404.22;;;20.53;26.09
74678;BME280;67324;56.326;43.982;2023-02-11T04:07:13;100407.66;;;20.53;26.19
74678;BME280;67324;56.326;43.982;2023-02-11T04:09:38;100403.25;;;20.54;26.23
74678;BME280;67324;56.326;43.982;2023-02-11T04:12:04;100411.94;;;20.54;26.15
74678;BME280;67324;56.326;43.982;2023-02-11T04:14:30;100407.66;;;20.53;26.22
74678;BME280;67324;56.326;43.982;2023-02-11T04:16:56;100395.53;;;20.52;26.35
74678;BME280;67324;56.326;43.982;2023-02-11T04:19:22;100407.66;;;20.53;26.32
74678;BME280;67324;56.326;43.982;2023-02-11T04:21:48;100397.97;;;20.54;26.26
74678;BME280;67324;56.326;43.982;2023-02-11T04:24:14;100405.03;;;20.53;26.28
74678;BME280;67324;56.326;43.982;2023-02-11T04:26:39;100405.03;;;20.53;26.17
74678;BME280;67324;56.326;43.982;2023-02-11T04:29:05;100404.22;;;20.53;26.14
74678;BME280;67324;56.326;43.982;2023-02-11T04:31:31;100404.22;;;20.53;26.23
74678;BME280;67324;56.326;43.982;2023-02-11T04:33:57;100405.88;;;20.54;26.25
74678;BME280;67324;56.326;43.982;2023-02-11T04:36:23;100395.34;;;20.54;26.24
74678;BME280;67324;56.326;43.982;2023-02-11T04:38:48;100393.53;;;20.54;26.21
74678;BME280;67324;56.326;43.982;2023-02-11T04:41:14;100396.16;;;20.54;26.24
74678;BME280;67324;56.326;43.982;2023-02-11T04:43:40;100395.25;;;20.55;26.15
74678;BME280;67324;56.326;43.982;2023-02-11T04:46:06;100405.03;;;20.53;26.30
74678;BME280;67324;56.326;43.982;2023-02-11T04:48:32;100397.97;;;20.54;26.23
74678;BME280;67324;56.326;43.982;2023-02-11T04:50:59;100399.78;;;20.53;26.18
74678;BME280;67324;56.326;43.982;2023-02-11T04:53:25;100405.88;;;20.54;26.23
74678;BME280;67324;56.326;43.982;2023-02-11T04:55:51;100397.16;;;20.53;26.13
74678;BME280;67324;56.326;43.982;2023-02-11T04:58:17;100405.88;;;20.54;26.21
74678;BME280;67324;56.326;43.982;2023-02-11T05:00:43;100403.25;;;20.54;26.08
74678;BME280;67324;56.326;43.982;2023-02-11T05:03:09;100404.06;;;20.54;26.42
74678;BME280;67324;56.326;43.982;2023-02-11T05:05:38;100411.13;;;20.54;26.15
74678;BME280;67324;56.326;43.982;2023-02-11T05:08:06;100411.13;;;20.54;26.30
74678;BME280;67324;56.326;43.982;2023-02-11T05:10:32;100412.81;;;20.55;26.15
74678;BME280;67324;56.326;43.982;2023-02-11T05:12:58;100411.00;;;20.55;26.25
74678;BME280;67324;56.326;43.982;2023-02-11T05:15:23;100405.88;;;20.54;26.19
74678;BME280;67324;56.326;43.982;2023-02-11T05:17:49;100409.31;;;20.54;26.30
74678;BME280;67324;56.326;43.982;2023-02-11T05:20:15;100409.31;;;20.54;26.26
74678;BME280;67324;56.326;43.982;2023-02-11T05:22:41;100406.69;;;20.54;26.29
74678;BME280;67324;56.326;43.982;2023-02-11T05:25:07;100408.38;;;20.55;26.29
74678;BME280;67324;56.326;43.982;2023-02-11T05:27:33;100392.63;;;20.55;26.04
74678;BME280;67324;56.326;43.982;2023-02-11T05:29:59;100394.25;;;20.56;26.15
74678;BME280;67324;56.326;43.982;2023-02-11T05:32:25;100397.06;;;20.55;26.09
74678;BME280;67324;56.326;43.982;2023-02-11T05:34:51;100393.53;;;20.54;26.15
74678;BME280;67324;56.326;43.982;2023-02-11T05:37:17;100399.50;;;20.56;26.20
74678;BME280;67324;56.326;43.982;2023-02-11T05:39:42;100401.44;;;20.54;26.30
74678;BME280;67324;56.326;43.982;2023-02-11T05:42:08;100398.69;;;20.56;26.23
74678;BME280;67324;56.326;43.982;2023-02-11T05:44:34;100389.16;;;20.55;26.33
74678;BME280;67324;56.326;43.982;2023-02-11T05:47:00;100400.50;;;20.55;26.05
74678;BME280;67324;56.326;43.982;2023-02-11T05:49:26;100398.69;;;20.56;26.11
74678;BME280;67324;56.326;43.982;2023-02-11T05:51:52;100398.69;;;20.56;26.12
74678;BME280;67324;56.326;43.982;2023-02-11T05:54:17;100397.88;;;20.55;26.27
74678;BME280;67324;56.326;43.982;2023-02-11T05:56:43;100396.88;;;20.56;26.22
74678;BME280;67324;56.326;43.982;2023-02-11T05:59:12;100402.13;;;20.56;26.16
74678;BME280;67324;56.326;43.982;2023-02-11T06:01:38;100399.50;;;20.56;26.16
74678;BME280;67324;56.326;43.982;2023-02-11T06:04:04;100400.31;;;20.57;26.21
74678;BME280;67324;56.326;43.982;2023-02-11T06:06:30;100404.75;;;20.56;26.27
74678;BME280;67324;56.326;43.982;2023-02-11T06:08:56;100402.00;;;20.58;26.24
74678;BME280;67324;56.326;43.982;2023-02-11T06:11:22;100411.69;;;20.57;26.07
74678;BME280;67324;56.326;43.982;2023-02-11T06:13:48;100406.44;;;20.57;26.17
74678;BME280;67324;56.326;43.982;2023-02-11T06:16:14;100402.97;;;20.57;26.31
74678;BME280;67324;56.326;43.982;2023-02-11T06:18:40;100401.44;;;20.54;26.12
74678;BME280;67324;56.326;43.982;2023-02-11T06:21:24;100402.13;;;20.56;26.23
74678;BME280;67324;56.326;43.982;2023-02-11T06:23:50;100395.06;;;20.57;26.21
74678;BME280;67324;56.326;43.982;2023-02-11T06:26:21;100408.22;;;20.57;26.25
74678;BME280;67324;56.326;43.982;2023-02-11T09:28:21;100444.78;;;20.05;26.70
74678;BME280;67324;56.326;43.982;2023-02-11T09:30:47;100443.81;;;20.06;26.74
74678;BME280;67324;56.326;43.982;2023-02-11T09:33:12;100436.78;;;20.06;26.58
74678;BME280;67324;56.326;43.982;2023-02-11T09:35:38;100434.97;;;20.07;26.62
74678;BME280;67324;56.326;43.982;2023-02-11T09:38:04;100442.84;;;20.07;26.45
74678;BME280;67324;56.326;43.982;2023-02-11T09:40:30;100450.59;;;20.08;26.63
74678;BME280;67324;56.326;43.982;2023-02-11T09:43:05;100445.31;;;20.08;26.30
74678;BME280;67324;56.326;43.982;2023-02-11T09:45:54;100453.34;;;20.07;26.49
74678;BME280;67324;56.326;43.982;2023-02-11T09:48:21;100452.38;;;20.08;26.31
74678;BME280;67324;56.326;43.982;2023-02-11T09:50:56;100462.03;;;20.07;26.40
74678;BME280;67324;56.326;43.982;2023-02-11T09:53:25;100465.66;;;20.06;26.45
74678;BME280;67324;56.326;43.982;2023-02-11T09:55:54;100465.66;;;20.06;26.42
74678;BME280;67324;56.326;43.982;2023-02-11T09:58:25;100466.47;;;20.07;26.48
74678;BME280;67324;56.326;43.982;2023-02-11T10:01:07;100472.53;;;20.07;26.32
74678;BME280;67324;56.326;43.982;2023-02-11T10:04:32;100470.09;;;20.06;26.29
74678;BME280;67324;56.326;43.982;2023-02-11T10:06:56;100467.28;;;20.07;26.37
74678;BME280;67324;56.326;43.982;2023-02-11T10:10:03;100473.53;;;20.06;26.37
74678;BME280;67324;56.326;43.982;2023-02-11T10:13:05;100468.41;;;20.05;26.42
74678;BME280;67324;56.326;43.982;2023-02-11T10:21:11;100465.66;;;20.06;26.31
74678;BME280;67324;56.326;43.982;2023-02-11T10:23:45;100471.72;;;20.07;26.48
74678;BME280;67324;56.326;43.982;2023-02-11T10:26:17;100467.28;;;20.07;26.37
74678;BME280;67324;56.326;43.982;2023-02-11T10:28:49;100460.41;;;20.06;26.31
74678;BME280;67324;56.326;43.982;2023-02-11T10:31:23;100449.59;;;20.09;26.35
74678;BME280;67324;56.326;43.982;2023-02-11T10:34:10;100452.22;;;20.09;26.35
74678;BME280;67324;56.326;43.982;2023-02-11T10:36:40;100442.69;;;20.08;26.19
74678;BME280;67324;56.326;43.982;2023-02-11T10:39:13;100456.53;;;20.10;26.32
74678;BME280;67324;56.326;43.982;2023-02-11T10:41:46;100450.28;;;20.11;26.23
74678;BME280;67324;56.326;43.982;2023-02-11T10:44:40;100452.91;;;20.11;26.25
74678;BME280;67324;56.326;43.982;2023-02-11T10:47:16;100453.72;;;20.12;26.18
74678;BME280;67324;56.326;43.982;2023-02-11T10:49:44;100454.56;;;20.12;26.07
74678;BME280;67324;56.326;43.982;2023-02-11T10:57:42;100450.16;;;20.13;26.13
74678;BME280;67324;56.326;43.982;2023-02-11T11:03:03;100440.47;;;20.13;26.28
74678;BME280;67324;56.326;43.982;2023-02-11T11:05:35;100438.81;;;20.12;26.28
74678;BME280;67324;56.326;43.982;2023-02-11T11:08:21;100434.22;;;20.14;26.19
74678;BME280;67324;56.326;43.982;2023-02-11T11:11:00;100431.47;;;20.16;26.09
74678;BME280;67324;56.326;43.982;2023-02-11T11:13:34;100439.19;;;20.17;26.14
74678;BME280;67324;56.326;43.982;2023-02-11T11:18:39;100427.72;;;20.18;26.20
74678;BME280;67324;56.326;43.982;2023-02-11T11:21:10;100427.72;;;20.18;26.12
74678;BME280;67324;56.326;43.982;2023-02-11T11:23:58;100435.59;;;20.18;26.17
74678;BME280;67324;56.326;43.982;2023-02-11T11:26:38;100432.81;;;20.20;26.24
74678;BME280;67324;56.326;43.982;2023-02-11T11:29:41;100434.59;;;20.19;26.21
74678;BME280;67324;56.326;43.982;2023-02-11T11:32:25;100436.09;;;20.22;26.20
74678;BME280;67324;56.326;43.982;2023-02-11T11:34:54;100427.41;;;20.21;26.10
74678;BME280;67324;56.326;43.982;2023-02-11T11:37:31;100432.66;;;20.21;26.05
74678;BME280;67324;56.326;43.982;2023-02-11T11:42:34;100425.59;;;20.22;26.14
74678;BME280;67324;56.326;43.982;2023-02-11T11:50:41;100425.47;;;20.23;26.03
74678;BME280;67324;56.326;43.982;2023-02-11T11:54:02;100427.09;;;20.25;25.93
74678;BME280;67324;56.326;43.982;2023-02-11T11:56:31;100434.03;;;20.26;25.99
74678;BME280;67324;56.326;43.982;2023-02-11T11:59:05;100425.31;;;20.25;26.10
74678;BME280;67324;56.326;43.982;2023-02-11T12:04:55;100423.50;;;20.26;26.12
74678;BME280;67324;56.326;43.982;2023-02-11T12:07:53;100432.22;;;20.26;26.11
74678;BME280;67324;56.326;43.982;2023-02-11T12:26:37;100425.16;;;20.27;26.10
74678;BME280;67324;56.326;43.982;2023-02-11T12:37:34;100428.47;;;20.29;25.95
74678;BME280;67324;56.326;43.982;2023-02-11T12:45:57;100428.47;;;20.29;25.88
74678;BME280;67324;56.326;43.982;2023-02-11T12:54:48;100425.69;;;20.30;25.97
74678;BME280;67324;56.326;43.982;2023-02-11T12:57:22;100434.41;;;20.31;25.94
74678;BME280;67324;56.326;43.982;2023-02-11T13:00:06;100431.78;;;20.31;25.96
74678;BME280;67324;56.326;43.982;2023-02-11T13:08:10;100422.09;;;20.31;25.88
74678;BME280;67324;56.326;43.982;2023-02-11T13:10:39;100425.53;;;20.32;25.83
74678;BME280;67324;56.326;43.982;2023-02-11T13:13:22;100424.72;;;20.31;25.92
74678;BME280;67324;56.326;43.982;2023-02-11T13:15:54;100421.25;;;20.31;25.77
74678;BME280;67324;56.326;43.982;2023-02-11T13:18:41;100418.50;;;20.32;25.93
74678;BME280;67324;56.326;43.982;2023-02-11T13:31:55;100418.50;;;20.32;25.81
74678;BME280;67324;56.326;43.982;2023-02-11T13:37:20;100406.31;;;20.31;25.87
74678;BME280;67324;56.326;43.982;2023-02-11T13:40:01;100399.25;;;20.32;25.79
74678;BME280;67324;56.326;43.982;2023-02-11T13:42:31;100394.00;;;20.32;25.84
74678;BME280;67324;56.326;43.982;2023-02-11T13:44:58;100390.72;;;20.30;25.81
74678;BME280;67324;56.326;43.982;2023-02-11T13:49:50;100386.13;;;20.32;25.76
74678;BME280;67324;56.326;43.982;2023-02-11T13:52:36;100396.63;;;20.32;25.85
74678;BME280;67324;56.326;43.982;2023-02-11T13:57:40;100387.78;;;20.33;25.78
74678;BME280;67324;56.326;43.982;2023-02-11T14:02:35;100391.38;;;20.32;25.93
74678;BME280;67324;56.326;43.982;2023-02-11T14:14:17;100366.91;;;20.31;25.81
74678;BME280;67324;56.326;43.982;2023-02-11T14:24:54;100357.09;;;20.33;25.63
74678;BME280;67324;56.326;43.982;2023-02-11T14:27:28;100356.28;;;20.33;25.80
74678;BME280;67324;56.326;43.982;2023-02-11T14:30:00;100358.09;;;20.32;25.81
74678;BME280;67324;56.326;43.982;2023-02-11T14:32:53;100361.53;;;20.33;25.72
74678;BME280;67324;56.326;43.982;2023-02-11T14:36:04;100351.34;;;20.30;25.86
74678;BME280;67324;56.326;43.982;2023-02-11T14:41:22;100348.41;;;20.33;25.79
74678;BME280;67324;56.326;43.982;2023-02-11T14:43:55;100345.59;;;20.34;25.72
74678;BME280;67324;56.326;43.982;2023-02-11T14:46:23;100351.03;;;20.33;25.69
74678;BME280;67324;56.326;43.982;2023-02-11T14:48:53;100344.78;;;20.34;25.71
74678;BME280;67324;56.326;43.982;2023-02-11T14:51:34;100336.91;;;20.34;25.74
74678;BME280;67324;56.326;43.982;2023-02-11T14:54:16;100338.56;;;20.35;25.72
74678;BME280;67324;56.326;43.982;2023-02-11T14:56:44;100337.72;;;20.34;25.52
74678;BME280;67324;56.326;43.982;2023-02-11T14:59:17;100339.22;;;20.37;25.79
74678;BME280;67324;56.326;43.982;2023-02-11T15:01:48;100327.06;;;20.36;25.75
74678;BME280;67324;56.326;43.982;2023-02-11T15:04:26;100333.97;;;20.37;25.79
74678;BME280;67324;56.326;43.982;2023-02-11T15:06:53;100326.94;;;20.37;25.86
74678;BME280;67324;56.326;43.982;2023-02-11T15:12:21;100327.75;;;20.38;25.65
74678;BME280;67324;56.326;43.982;2023-02-11T15:14:50;100331.06;;;20.40;25.78
74678;BME280;67324;56.326;43.982;2023-02-11T15:17:35;100321.50;;;20.39;25.77
74678;BME280;67324;56.326;43.982;2023-02-11T15:20:24;100335.31;;;20.41;25.68
74678;BME280;67324;56.326;43.982;2023-02-11T15:22:55;100330.88;;;20.41;25.79
74678;BME280;67324;56.326;43.982;2023-02-11T15:25:22;100318.56;;;20.42;25.77
74678;BME280;67324;56.326;43.982;2023-02-11T15:27:53;100322.19;;;20.41;25.69
74678;BME280;67324;56.326;43.982;2023-02-11T15:33:00;100323.69;;;20.43;25.75
74678;BME280;67324;56.326;43.982;2023-02-11T15:35:30;100318.41;;;20.43;25.77
74678;BME280;67324;56.326;43.982;2023-02-11T15:37:57;100315.78;;;20.43;25.70
74678;BME280;67324;56.326;43.982;2023-02-11T15:40:31;100311.34;;;20.44;25.78
74678;BME280;67324;56.326;43.982;2023-02-11T15:43:06;100298.22;;;20.44;25.76
74678;BME280;67324;56.326;43.982;2023-02-11T15:46:17;100302.53;;;20.45;25.75
74678;BME280;67324;56.326;43.982;2023-02-11T15:48:50;100299.22;;;20.43;25.80
74678;BME280;67324;56.326;43.982;2023-02-11T15:51:18;100294.63;;;20.45;25.78
74678;BME280;67324;56.326;43.982;2023-02-11T15:53:59;100305.16;;;20.45;25.60
74678;BME280;67324;56.326;43.982;2023-02-11T15:56:42;100287.03;;;20.42;25.70
74678;BME280;67324;56.326;43.982;2023-02-11T15:59:13;100287.88;;;20.42;25.70
74678;BME280;67324;56.326;43.982;2023-02-11T16:01:41;100280.00;;;20.42;25.67
74678;BME280;67324;56.326;43.982;2023-02-11T16:04:17;100286.91;;;20.43;25.73
74678;BME280;67324;56.326;43.982;2023-02-11T16:06:43;100282.63;;;20.42;25.69
74678;BME280;67324;56.326;43.982;2023-02-11T16:12:16;100280.00;;;20.42;25.72
74678;BME280;67324;56.326;43.982;2023-02-11T16:14:47;100265.19;;;20.41;25.61
74678;BME280;67324;56.326;43.982;2023-02-11T16:17:26;100257.19;;;20.43;25.65
74678;BME280;67324;56.326;43.982;2023-02-11T16:19:53;100254.69;;;20.41;25.78
74678;BME280;67324;56.326;43.982;2023-02-11T16:22:28;100251.25;;;20.41;25.77
74678;BME280;67324;56.326;43.982;2023-02-11T16:24:57;100257.19;;;20.43;25.67
74678;BME280;67324;56.326;43.982;2023-02-11T16:27:37;100258.13;;;20.42;25.65
74678;BME280;67324;56.326;43.982;2023-02-11T16:30:04;100260.75;;;20.42;25.67
74678;BME280;67324;56.326;43.982;2023-02-11T16:32:31;100258.97;;;20.42;25.70
74678;BME280;67324;56.326;43.982;2023-02-11T16:34:58;100259.81;;;20.43;25.69
74678;BME280;67324;56.326;43.982;2023-02-11T16:37:25;100251.91;;;20.43;25.76
74678;BME280;67324;56.326;43.982;2023-02-11T16:39:55;100251.75;;;20.44;25.73
74678;BME280;67324;56.326;43.982;2023-02-11T16:42:22;100245.00;;;20.42;25.71
74678;BME280;67324;56.326;43.982;2023-02-11T16:44:49;100238.78;;;20.43;25.62
74678;BME280;67324;56.326;43.982;2023-02-11T16:47:33;100236.31;;;20.41;25.68
74678;BME280;67324;56.326;43.982;2023-02-11T16:50:01;100223.97;;;20.42;25.71
74678;BME280;67324;56.326;43.982;2023-02-11T16:52:29;100233.69;;;20.41;25.84
74678;BME280;67324;56.326;43.982;2023-02-11T16:54:57;100214.47;;;20.41;25.77
74678;BME280;67324;56.326;43.982;2023-02-11T16:57:24;100221.34;;;20.42;25.68
74678;BME280;67324;56.326;43.982;2023-02-11T16:59:51;100216.09;;;20.42;25.68
74678;BME280;67324;56.326;43.982;2023-02-11T17:02:20;100211.84;;;20.41;25.85
74678;BME280;67324;56.326;43.982;2023-02-11T17:04:47;100211.84;;;20.41;25.70
74678;BME280;67324;56.326;43.982;2023-02-11T17:07:13;100209.22;;;20.41;25.68
74678;BME280;67324;56.326;43.982;2023-02-11T17:09:39;100204.09;;;20.39;25.63
74678;BME280;67324;56.326;43.982;2023-02-11T17:12:05;100204.94;;;20.40;25.60
74678;BME280;67324;56.326;43.982;2023-02-11T17:14:50;100193.59;;;20.39;25.79
74678;BME280;67324;56.326;43.982;2023-02-11T17:17:16;100190.16;;;20.39;25.73
74678;BME280;67324;56.326;43.982;2023-02-11T17:19:42;100186.69;;;20.38;25.80
74678;BME280;67324;56.326;43.982;2023-02-11T17:22:09;100178.81;;;20.38;25.72
74678;BME280;67324;56.326;43.982;2023-02-11T17:24:35;100179.63;;;20.39;25.69
74678;BME280;67324;56.326;43.982;2023-02-11T17:27:02;100172.75;;;20.38;25.72
74678;BME280;67324;56.326;43.982;2023-02-11T17:29:28;100169.31;;;20.37;25.73
74678;BME280;67324;56.326;43.982;2023-02-11T17:31:53;100165.00;;;20.36;25.62
74678;BME280;67324;56.326;43.982;2023-02-11T17:34:20;100161.25;;;20.39;25.63
74678;BME280;67324;56.326;43.982;2023-02-11T17:36:46;100157.00;;;20.38;25.78
74678;BME280;67324;56.326;43.982;2023-02-11T17:39:12;100150.06;;;20.37;25.77
74678;BME280;67324;56.326;43.982;2023-02-11T17:41:39;100149.09;;;20.38;25.75
74678;BME280;67324;56.326;43.982;2023-02-11T17:44:06;100141.22;;;20.38;25.81
74678;BME280;67324;56.326;43.982;2023-02-11T17:46:33;100142.19;;;20.37;25.70
74678;BME280;67324;56.326;43.982;2023-02-11T17:48:59;100135.31;;;20.36;25.68
74678;BME280;67324;56.326;43.982;2023-02-11T17:51:29;100140.41;;;20.37;25.58
74678;BME280;67324;56.326;43.982;2023-02-11T17:53:57;100130.88;;;20.36;25.68
74678;BME280;67324;56.326;43.982;2023-02-11T17:56:24;100137.94;;;20.36;25.71
74678;BME280;67324;56.326;43.982;2023-02-11T17:58:49;100123.81;;;20.37;25.55
74678;BME280;67324;56.326;43.982;2023-02-11T18:01:16;100128.41;;;20.35;25.68
74678;BME280;67324;56.326;43.982;2023-02-11T18:03:42;100129.06;;;20.37;25.72
74678;BME280;67324;56.326;43.982;2023-02-11T18:06:08;100124.78;;;20.36;25.80
74678;BME280;67324;56.326;43.982;2023-02-11T18:08:35;100117.72;;;20.36;25.67
74678;BME280;67324;56.326;43.982;2023-02-11T18:11:01;100113.47;;;20.35;25.69
74678;BME280;67324;56.326;43.982;2023-02-11T18:13:27;100115.28;;;20.35;25.75
74678;BME280;67324;56.326;43.982;2023-02-11T18:15:54;100110.84;;;20.35;25.66
74678;BME280;67324;56.326;43.982;2023-02-11T18:18:20;100109.84;;;20.36;25.68
74678;BME280;67324;56.326;43.982;2023-02-11T18:20:55;100104.59;;;20.36;25.77
74678;BME280;67324;56.326;43.982;2023-02-11T18:23:21;100097.72;;;20.35;25.74
74678;BME280;67324;56.326;43.982;2023-02-11T18:25:47;100090.78;;;20.34;25.73
74678;BME280;67324;56.326;43.982;2023-02-11T18:28:13;100098.53;;;20.36;25.57
74678;BME280;67324;56.326;43.982;2023-02-11T18:30:38;100080.28;;;20.34;25.63
74678;BME280;67324;56.326;43.982;2023-02-11T18:33:04;100081.13;;;20.35;25.63
74678;BME280;67324;56.326;43.982;2023-02-11T18:35:37;100081.13;;;20.35;25.69
74678;BME280;67324;56.326;43.982;2023-02-11T18:38:04;100068.97;;;20.34;25.76